Home > Products > Valid Products > MTR

000
SAUS45 KREV 230357
MTRDRA
METAR KDRA 230352Z AUTO 17008KT 10SM CLR 32/M04 A3004 RMK AO2 SLP117
T03221044





000
SAUS45 KREV 230257
MTRDRA
METAR KDRA 230252Z AUTO 22009KT 10SM CLR 34/M07 A3003 RMK AO2 SLP113
T03391067 55001





000
SAUS45 KREV 230157
MTRDRA
METAR KDRA 230152Z AUTO 21009G21KT 10SM CLR 36/M11 A3002 RMK AO2
SLP112 T03611106





000
SAUS45 KREV 230057
MTRDRA
METAR KDRA 230052Z AUTO 22013G23KT 10SM CLR 38/M11 A3002 RMK AO2
SLP112 T03781111





000
SAUS45 KREV 222358
MTRDRA
METAR KDRA 222352Z AUTO 21014G24KT 10SM CLR 38/M09 A3003 RMK AO2 PK
WND 19029/2335 SLP114 T03831094 10394 20339 56009





000
SAUS45 KREV 222257
MTRDRA
METAR KDRA 222252Z AUTO 22014G28KT 10SM CLR 38/M09 A3003 RMK AO2 PK
WND 20030/2224 SLP117 T03831094





000
SAUS45 KREV 222157
MTRDRA
METAR KDRA 222152Z AUTO 21021G26KT 10SM CLR 39/M08 A3004 RMK AO2 PK
WND 23030/2113 SLP120 T03891083





000
SAUS45 KREV 222057
MTRDRA
METAR KDRA 222052Z AUTO 23020G27KT 10SM CLR 38/M08 A3006 RMK AO2 PK
WND 23033/2020 SLP123 T03831083 58017





000
SAUS45 KREV 221957
MTRDRA
METAR KDRA 221952Z AUTO 25013G18KT 10SM CLR 37/M04 A3008 RMK AO2
SLP130 T03671039





000
SAUS45 KREV 221857
MTRDRA
METAR KDRA 221852Z AUTO 24008KT 210V270 10SM CLR 34/M01 A3010 RMK
AO2 SLP136 T03441011





000
SAUS45 KREV 221757
MTRDRA
METAR KDRA 221752Z AUTO VRB05KT 10SM CLR 34/M01 A3011 RMK AO2 SLP138
T03391006 10344 20189 50001





000
SAUS45 KREV 221657
MTRDRA
METAR KDRA 221652Z AUTO VRB04KT 10SM CLR 33/00 A3012 RMK AO2 SLP142
T03280000





000
SAUS45 KREV 221557
MTRDRA
METAR KDRA 221552Z AUTO 00000KT 10SM CLR 30/01 A3012 RMK AO2 SLP143
T03000006





000
SAUS45 KREV 221457
MTRDRA
METAR KDRA 221452Z AUTO 00000KT 10SM CLR 26/01 A3011 RMK AO2 SLP143
T02610006 51011





000
SAUS45 KREV 221256
MTRDRA
METAR KDRA 221252Z AUTO 10006KT 10SM CLR 19/M01 A3009 RMK AO2 SLP140
T01941011





000
SAUS45 KREV 221157
MTRDRA
METAR KDRA 221152Z AUTO 00000KT 10SM CLR 21/M01 A3007 RMK AO2 SLP133
T02111006 10300 20194 51007





000
SAUS45 KREV 221057
MTRDRA
METAR KDRA 221052Z AUTO 00000KT 10SM CLR 19/M02 A3007 RMK AO2 SLP133
T01941017





000
SAUS45 KREV 220957
MTRDRA
METAR KDRA 220952Z AUTO 12003KT 10SM CLR 21/M02 A3006 RMK AO2 SLP128
T02111017





000
SAUS45 KREV 220857
MTRDRA
METAR KDRA 220852Z AUTO 12003KT 10SM CLR 23/M02 A3005 RMK AO2 SLP123
T02281022 51005





000
SAUS45 KREV 220756
MTRDRA
METAR KDRA 220752Z AUTO 00000KT 10SM CLR 24/M01 A3005 RMK AO2 SLP122
T02441011 403670233





000
SAUS45 KREV 220657
MTRDRA
METAR KDRA 220652Z AUTO 00000KT 10SM CLR 28/M01 A3004 RMK AO2 SLP116
T02831006





000
SAUS45 KREV 220557
MTRDRA
METAR KDRA 220552Z AUTO 20010KT 10SM CLR 31/M01 A3003 RMK AO2 SLP113
T03061006 10356 20289 51010





000
SAUS45 KREV 220457
MTRDRA
METAR KDRA 220452Z AUTO 22005KT 10SM CLR 29/01 A3003 RMK AO2 SLP115
T02940006





000
SAUS45 KREV 220357
MTRDRA
METAR KDRA 220352Z AUTO 23011KT 10SM CLR 31/01 A3001 RMK AO2 SLP106
T03060011





000
SAUS45 KREV 220257
MTRDRA
METAR KDRA 220252Z AUTO 22009KT 10SM CLR 32/00 A3000 RMK AO2 SLP103
T03220000 53001





000
SAUS45 KREV 220157
MTRDRA
METAR KDRA 220152Z AUTO 21016G25KT 10SM CLR 34/M03 A3000 RMK AO2 PK
WND 23026/0103 SLP102 T03391028





000
SAUS45 KREV 220057
MTRDRA
METAR KDRA 220052Z AUTO 22019G23KT 10SM CLR 36/M03 A2999 RMK AO2 PK
WND 20026/0020 SLP101 T03561028





000
SAUS45 KREV 212357
MTRDRA
METAR KDRA 212352Z AUTO 22014G26KT 10SM CLR 36/M01 A3000 RMK AO2 PK
WND 22026/2350 SLP100 T03561011 10367 20322 58016





000
SAUS45 KREV 212257
MTRDRA
METAR KDRA 212252Z AUTO 23018G24KT 10SM CLR 36/M02 A3002 RMK AO2 PK
WND 21030/2153 SLP108 T03561017





000
SAUS45 KREV 212157
MTRDRA
METAR KDRA 212152Z AUTO 21021G29KT 10SM CLR 36/M01 A3003 RMK AO2 PK
WND 21029/2152 SLP112 T03611011





000
SAUS45 KREV 212057
MTRDRA
METAR KDRA 212052Z AUTO 18015G23KT 10SM CLR 36/00 A3005 RMK AO2 PK
WND 19028/2005 SLP116 T03610000 58008





000
SAUS45 KREV 211957
MTRDRA
METAR KDRA 211952Z AUTO 17017G24KT 10SM CLR 34/03 A3006 RMK AO2
SLP120 T03440028





000
SAUS45 KREV 211857
MTRDRA
METAR KDRA 211852Z AUTO 21019G23KT 10SM CLR 33/02 A3007 RMK AO2 PK
WND 17027/1825 SLP124 T03330017





000
SAUS45 KREV 211757
MTRDRA
METAR KDRA 211752Z AUTO 24020G28KT 10SM CLR 32/04 A3007 RMK AO2 PK
WND 21029/1729 SLP127 T03220044 10322 20244 50002





000
SAUS45 KREV 211657
MTRDRA
METAR KDRA 211652Z AUTO 20013G25KT 10SM CLR 31/06 A3009 RMK AO2
SLP134 T03060061





000
SAUS45 KREV 211557
MTRDRA
METAR KDRA 211552Z AUTO 20015G22KT 10SM CLR 30/06 A3008 RMK AO2
SLP130 T03000061





000
SAUS45 KREV 211457
MTRDRA
METAR KDRA 211452Z AUTO 22008KT 10SM CLR 29/04 A3007 RMK AO2 SLP126
T02890039 53019





000
SAUS45 KREV 211357
MTRDRA
METAR KDRA 211352Z AUTO 19011KT 10SM CLR 27/05 A3004 RMK AO2 SLP118
T02720050





000
SAUS45 KREV 211257
MTRDRA
METAR KDRA 211252Z AUTO 24007KT 10SM CLR 25/04 A3002 RMK AO2 SLP109
T02500044





000
SAUS45 KREV 211157
MTRDRA
METAR KDRA 211152Z AUTO 14008KT 10SM CLR 27/05 A3000 RMK AO2 SLP102
T02720050 10311 20233 53012





000
SAUS45 KREV 211057
MTRDRA
METAR KDRA 211052Z AUTO 05004KT 10SM CLR 25/04 A2999 RMK AO2 SLP097
T02500044





000
SAUS45 KREV 210957
MTRDRA
METAR KDRA 210952Z AUTO VRB03KT 10SM CLR 26/04 A2997 RMK AO2 SLP091
T02560039





000
SAUS45 KREV 210857
MTRDRA
METAR KDRA 210852Z AUTO 20007KT 10SM CLR 28/04 A2997 RMK AO2 SLP087
T02830044 50005





000
SAUS45 KREV 210757
MTRDRA
METAR KDRA 210752Z AUTO 20011G21KT 10SM CLR 29/04 A2997 RMK AO2
SLP088 T02940039 403780206





000
SAUS45 KREV 210657
MTRDRA
METAR KDRA 210652Z AUTO 21015G24KT 10SM CLR 30/03 A2996 RMK AO2
SLP085 T03000033





000
SAUS45 KREV 210557
MTRDRA
METAR KDRA 210552Z AUTO 00000KT 10SM CLR 29/01 A2995 RMK AO2 SLP083
T02940006 10361 20289 51009





000
SAUS45 KREV 210457
MTRDRA
METAR KDRA 210452Z AUTO 36005KT 10SM CLR 29/M02 A2994 RMK AO2 SLP082
T02941022





000
SAUS45 KREV 210357
MTRDRA
METAR KDRA 210352Z AUTO VRB04KT 10SM CLR 32/M03 A2993 RMK AO2 SLP080
T03171028





000
SAUS45 KREV 210257
MTRDRA
METAR KDRA 210252Z AUTO 23016G22KT 10SM CLR 32/M03 A2992 RMK AO2 PK
WND 22027/0212 SLP076 T03221033 53001





000
SAUS45 KREV 210157
MTRDRA
METAR KDRA 210152Z AUTO 24014G20KT 10SM CLR 34/M03 A2991 RMK AO2
SLP073 T03391028





000
SAUS45 KREV 210057
MTRDRA
METAR KDRA 210052Z AUTO 22015G21KT 10SM CLR 36/M02 A2991 RMK AO2
SLP076 T03561022





000
SAUS45 KREV 202357
MTRDRA
METAR KDRA 202352Z AUTO 18013G24KT 160V220 10SM CLR 36/02 A2991 RMK
AO2 SLP077 T03610017 10378 20328 56010





000
SAUS45 KREV 202257
MTRDRA
METAR KDRA 202252Z AUTO 16015G25KT 10SM CLR 37/M01 A2992 RMK AO2
SLP079 T03671006





000
SAUS45 KREV 202157
MTRDRA
METAR KDRA 202152Z AUTO 19016G26KT 10SM CLR 37/M03 A2993 RMK AO2 PK
WND 20030/2112 SLP082 T03721028





000
SAUS45 KREV 202057
MTRDRA
METAR KDRA 202052Z AUTO 20018G32KT 10SM CLR 37/M04 A2995 RMK AO2 PK
WND 20032/2037 SLP084 T03721044 56017





000
SAUS45 KREV 201957
MTRDRA
METAR KDRA 201952Z AUTO 20023G29KT 10SM FEW110 37/M03 A2997 RMK AO2
PK WND 21029/1952 SLP090 T03671028





000
SAUS45 KREV 201857
MTRDRA
METAR KDRA 201852Z AUTO VRB03KT 10SM CLR 34/04 A2999 RMK AO2 SLP098
T03390039





000
SAUS45 KREV 201757
MTRDRA
METAR KDRA 201752Z AUTO 04007KT 10SM CLR 34/04 A3001 RMK AO2 SLP104
T03390044 10339 20206 58005





000
SAUS45 KREV 201657
MTRDRA
METAR KDRA 201652Z AUTO 11008KT 10SM CLR 32/06 A3001 RMK AO2 SLP107
T03220061





000
SAUS45 KREV 201557
MTRDRA
METAR KDRA 201552Z AUTO 00000KT 10SM CLR 29/07 A3002 RMK AO2 SLP111
T02940067





000
SAUS45 KREV 201457
MTRDRA
METAR KDRA 201452Z AUTO 27003KT 10SM CLR 27/07 A3002 RMK AO2 SLP113
T02720067 53008





000
SAUS45 KREV 201257
MTRDRA
METAR KDRA 201252Z AUTO 09004KT 10SM CLR 22/07 A3001 RMK AO2 SLP112
T02170067





000
SAUS45 KREV 201157
MTRDRA
METAR KDRA 201152Z AUTO 05003KT 10SM CLR 22/07 A3000 RMK AO2 SLP107
T02170067 10283 20217 53002





000
SAUS45 KREV 201057
MTRDRA
METAR KDRA 201052Z AUTO 10003KT 10SM CLR 22/06 A2999 RMK AO2 SLP102
T02220061





000
SAUS45 KREV 200957
MTRDRA
METAR KDRA 200952Z AUTO 06003KT 10SM CLR 23/06 A2998 RMK AO2 SLP099
T02280061





000
SAUS45 KREV 200857
MTRDRA
METAR KDRA 200852Z AUTO 02003KT 10SM CLR 24/07 A2999 RMK AO2 SLP099
T02440067 58001





000
SAUS45 KREV 200757
MTRDRA
METAR KDRA 200752Z AUTO 03006KT 10SM CLR 26/07 A2999 RMK AO2 SLP098
T02610067 403780211





000
SAUS45 KREV 200657
MTRDRA
METAR KDRA 200652Z AUTO 29005KT 10SM CLR 27/07 A2999 RMK AO2 SLP099
T02670067





000
SAUS45 KREV 200557
MTRDRA
METAR KDRA 200552Z AUTO 33006KT 10SM CLR 28/06 A2999 RMK AO2 SLP100
T02780061 10344 20278 51009





000
SAUS45 KREV 200457
MTRDRA
METAR KDRA 200452Z AUTO 24007KT 10SM CLR 29/06 A2999 RMK AO2 SLP098
T02890061





    US Dept of Commerce
    National Oceanic and Atmospheric Administration
    National Weather Service
    1325 East West Highway
    Silver Spring, MD 20910
    Page Author: NWS Internet Services Team
Disclaimer
Information Quality
Credits
Glossary
Privacy Policy
Freedom of Information Act (FOIA)
About Us
Career Opportunities